createdAt,value
2023-05-04T00:00:11.734Z,69.49
2023-05-04T00:02:47.245Z,69.66
2023-05-04T00:05:19.725Z,69.74
2023-05-04T00:07:52.288Z,69.60
2023-05-04T00:10:24.618Z,70.06
2023-05-04T00:12:57.215Z,70.41
2023-05-04T00:15:30.804Z,71.00
2023-05-04T00:18:03.163Z,70.63
2023-05-04T00:20:35.409Z,70.27
2023-05-04T00:23:07.627Z,70.15
2023-05-04T00:25:39.841Z,71.73
2023-05-04T00:28:12.098Z,71.30
2023-05-04T00:30:44.619Z,71.17
2023-05-04T00:33:16.969Z,70.93
2023-05-04T00:35:49.157Z,71.29
2023-05-04T00:38:21.681Z,71.48
2023-05-04T00:40:54.046Z,71.66
2023-05-04T00:43:26.988Z,71.46
2023-05-04T00:45:59.794Z,71.99
2023-05-04T00:48:35.911Z,71.53
2023-05-04T00:51:09.601Z,71.81
2023-05-04T00:53:42.945Z,71.66
2023-05-04T00:56:19.128Z,71.98
2023-05-04T00:58:54.746Z,71.78
2023-05-04T01:01:27.110Z,71.96
2023-05-04T01:03:59.821Z,72.08
2023-05-04T01:07:15.199Z,73.51
2023-05-04T01:10:05.665Z,73.20
2023-05-04T01:13:06.616Z,72.61
2023-05-04T01:15:41.514Z,72.24
2023-05-04T01:18:14.031Z,72.34
2023-05-04T01:20:46.492Z,72.02
2023-05-04T01:23:18.745Z,73.01
2023-05-04T01:26:08.540Z,73.60
2023-05-04T01:29:16.815Z,72.66
2023-05-04T01:31:50.474Z,73.12
2023-05-04T01:34:23.463Z,73.12
2023-05-04T01:36:56.219Z,73.33
2023-05-04T01:39:30.263Z,73.38
2023-05-04T01:42:02.750Z,73.67
2023-05-04T01:44:35.298Z,73.82
2023-05-04T01:47:07.818Z,73.93
2023-05-04T01:49:40.850Z,73.75
2023-05-04T01:52:13.384Z,74.03
2023-05-04T01:54:45.623Z,74.26
2023-05-04T01:57:17.997Z,74.79
2023-05-04T01:59:50.458Z,74.28
2023-05-04T02:02:23.603Z,74.64
2023-05-04T02:04:55.985Z,73.91
2023-05-04T02:07:28.424Z,74.05
2023-05-04T02:10:00.993Z,74.12
2023-05-04T02:12:33.461Z,74.24
2023-05-04T02:15:06.546Z,74.36
2023-05-04T02:17:39.023Z,74.79
2023-05-04T02:20:13.283Z,74.92
2023-05-04T02:22:45.928Z,74.82
2023-05-04T02:25:18.344Z,74.63
2023-05-04T02:27:50.658Z,74.83
2023-05-04T02:30:23.091Z,75.40
2023-05-04T02:32:55.961Z,74.74
2023-05-04T02:35:30.540Z,75.43
2023-05-04T02:38:03.733Z,75.27
2023-05-04T02:40:36.035Z,75.41
2023-05-04T02:43:08.546Z,75.28
2023-05-04T02:45:41.034Z,75.56
2023-05-04T02:48:16.663Z,75.36
2023-05-04T02:50:48.935Z,76.68
2023-05-04T02:53:21.289Z,76.13
2023-05-04T02:55:53.639Z,76.28
2023-05-04T02:58:25.901Z,76.12
2023-05-04T03:00:59.371Z,76.96
2023-05-04T03:03:34.842Z,76.75
2023-05-04T03:06:07.457Z,76.33
2023-05-04T03:08:42.774Z,76.78
2023-05-04T03:11:15.170Z,76.25
2023-05-04T03:13:47.510Z,76.08
2023-05-04T03:16:19.834Z,76.49
2023-05-04T03:18:52.100Z,76.72
2023-05-04T03:21:24.725Z,77.25
2023-05-04T03:23:57.301Z,76.96
2023-05-04T03:26:30.099Z,76.41
2023-05-04T03:29:02.516Z,76.70
2023-05-04T03:31:34.977Z,76.88
2023-05-04T03:34:07.498Z,77.01
2023-05-04T03:36:39.839Z,77.81
2023-05-04T03:39:12.820Z,77.88
2023-05-04T03:41:45.185Z,78.06
2023-05-04T03:44:17.558Z,77.57
2023-05-04T03:46:49.880Z,77.43
2023-05-04T03:49:22.478Z,77.64
2023-05-04T03:51:54.882Z,77.35
2023-05-04T03:54:27.160Z,77.43
2023-05-04T03:57:04.636Z,77.50
2023-05-04T03:59:37.043Z,77.86
2023-05-04T04:02:11.628Z,77.81
2023-05-04T04:04:43.890Z,77.90
2023-05-04T04:07:16.186Z,78.41
2023-05-04T04:09:48.622Z,78.03
2023-05-04T04:12:21.265Z,77.75
2023-05-04T04:14:53.526Z,77.88
2023-05-04T04:17:25.939Z,77.64
2023-05-04T04:19:58.332Z,77.58
2023-05-04T04:22:30.853Z,77.56
2023-05-04T04:25:03.729Z,77.47
2023-05-04T04:27:36.905Z,77.65
2023-05-04T04:30:10.277Z,77.47
2023-05-04T04:32:42.731Z,76.98
2023-05-04T04:35:15.305Z,77.22
2023-05-04T04:37:47.861Z,77.43
2023-05-04T04:40:20.203Z,77.37
2023-05-04T04:42:52.788Z,77.05
2023-05-04T04:45:25.065Z,77.65
2023-05-04T04:47:58.061Z,78.02
2023-05-04T04:50:30.663Z,77.45
2023-05-04T04:53:02.895Z,76.82
2023-05-04T04:55:35.133Z,76.94
2023-05-04T04:58:09.130Z,76.63
2023-05-04T05:00:41.328Z,76.50
2023-05-04T05:03:13.797Z,76.05
2023-05-04T05:05:46.193Z,75.87
2023-05-04T05:08:18.492Z,75.71
2023-05-04T05:10:50.808Z,75.77
2023-05-04T05:13:23.422Z,75.72
2023-05-04T05:15:55.932Z,75.65
2023-05-04T05:18:29.605Z,75.53
2023-05-04T05:21:02.089Z,75.69
2023-05-04T05:23:35.825Z,74.93
2023-05-04T05:26:08.230Z,74.25
2023-05-04T05:28:40.584Z,74.62
2023-05-04T05:31:13.013Z,73.90
2023-05-04T05:33:45.414Z,73.91
2023-05-04T05:36:21.690Z,73.34
2023-05-04T05:38:54.079Z,73.19
2023-05-04T05:41:26.445Z,72.88
2023-05-04T05:43:58.975Z,73.12
2023-05-04T05:46:31.289Z,72.51
2023-05-04T05:49:06.214Z,70.91
2023-05-04T05:51:38.599Z,71.34
2023-05-04T05:54:11.021Z,69.74
2023-05-04T05:56:43.295Z,69.79
2023-05-04T05:59:16.208Z,70.04
2023-05-04T06:01:48.483Z,69.37
2023-05-04T06:04:21.021Z,68.86
2023-05-04T06:06:53.924Z,66.97
2023-05-04T06:09:26.193Z,66.67
2023-05-04T06:11:58.824Z,66.36
2023-05-04T06:14:31.099Z,66.35
2023-05-04T06:17:17.900Z,65.66
2023-05-04T06:19:51.564Z,64.20
2023-05-04T06:22:23.764Z,64.74
2023-05-04T06:25:01.512Z,63.20
2023-05-04T06:27:36.194Z,63.82
2023-05-04T06:30:09.381Z,63.43
2023-05-04T06:32:41.713Z,64.11
2023-05-04T06:35:14.069Z,62.65
2023-05-04T06:37:46.607Z,61.87
2023-05-04T06:40:18.936Z,62.15
2023-05-04T06:42:51.089Z,61.65
2023-05-04T06:45:23.266Z,62.08
2023-05-04T06:47:57.657Z,62.02
2023-05-04T06:50:30.790Z,61.16
2023-05-04T06:53:11.032Z,61.59
2023-05-04T06:55:43.145Z,61.25
2023-05-04T06:58:19.257Z,60.37
2023-05-04T07:00:52.168Z,59.45
2023-05-04T07:03:24.489Z,59.80
2023-05-04T07:05:56.842Z,60.21
2023-05-04T07:08:29.047Z,58.90
2023-05-04T07:11:01.440Z,57.21
2023-05-04T07:13:33.769Z,57.00
2023-05-04T07:19:53.812Z,54.49
2023-05-04T07:23:06.649Z,53.84
2023-05-04T07:27:00.504Z,53.83
2023-05-04T07:30:06.117Z,52.98
2023-05-04T07:33:27.556Z,51.28
2023-05-04T07:42:37.706Z,50.19
2023-05-04T07:48:57.633Z,47.42
2023-05-04T07:51:32.326Z,46.46
2023-05-04T07:54:07.873Z,46.31
2023-05-04T07:56:46.842Z,45.89
2023-05-04T07:59:31.018Z,43.92
2023-05-04T08:02:22.529Z,42.01
2023-05-04T08:05:47.933Z,41.78
2023-05-04T08:08:22.680Z,40.48
2023-05-04T08:11:08.448Z,39.68
2023-05-04T08:20:27.883Z,38.17
2023-05-04T08:23:10.042Z,37.03
2023-05-04T08:25:49.872Z,36.72
2023-05-04T08:28:22.661Z,35.65
2023-05-04T08:30:54.973Z,34.44
2023-05-04T08:33:27.475Z,34.10
2023-05-04T08:36:00.653Z,33.57
2023-05-04T08:38:33.022Z,33.64
2023-05-04T08:41:06.197Z,33.43
2023-05-04T08:43:38.835Z,33.44
2023-05-04T08:46:11.842Z,34.27
2023-05-04T08:48:45.166Z,34.40
2023-05-04T08:51:18.331Z,32.50
2023-05-04T08:53:52.142Z,32.63
2023-05-04T08:56:25.453Z,31.66
2023-05-04T08:59:02.168Z,30.46
2023-05-04T09:01:36.860Z,29.94
2023-05-04T09:04:09.398Z,29.88
2023-05-04T09:06:42.272Z,28.81
2023-05-04T09:09:15.134Z,28.00
2023-05-04T09:11:48.118Z,25.35
2023-05-04T09:14:23.394Z,26.29
2023-05-04T09:16:55.734Z,25.69
2023-05-04T09:19:33.681Z,24.79
2023-05-04T09:22:18.417Z,25.95
2023-05-04T09:24:50.868Z,25.58
2023-05-04T09:27:23.392Z,25.75
2023-05-04T09:29:57.694Z,26.27
2023-05-04T09:32:30.794Z,27.46
2023-05-04T09:35:03.586Z,28.09
2023-05-04T09:37:47.472Z,27.68
2023-05-04T09:40:30.611Z,27.69
2023-05-04T09:43:03.418Z,27.42
2023-05-04T09:45:44.249Z,28.75
2023-05-04T09:48:27.294Z,28.31
2023-05-04T09:51:04.376Z,28.47
2023-05-04T09:53:39.576Z,28.94
2023-05-04T09:56:30.221Z,28.45
2023-05-04T09:59:03.192Z,28.93
2023-05-04T10:01:35.744Z,28.84
2023-05-04T10:04:08.433Z,29.27
2023-05-04T10:06:43.583Z,27.68
2023-05-04T10:09:16.829Z,28.14
2023-05-04T10:11:49.807Z,27.92
2023-05-04T10:14:22.788Z,26.98
2023-05-04T10:17:18.677Z,27.45
2023-05-04T10:20:19.729Z,27.04
2023-05-04T10:23:37.360Z,24.81
2023-05-04T10:26:53.913Z,25.11
2023-05-04T10:29:29.507Z,24.31
2023-05-04T10:32:02.220Z,24.86
2023-05-04T10:34:35.833Z,24.43
2023-05-04T10:37:20.638Z,24.08
2023-05-04T10:39:54.683Z,24.23
2023-05-04T10:42:27.008Z,21.95
2023-05-04T10:44:59.667Z,23.61
2023-05-04T10:47:36.067Z,21.79
2023-05-04T10:50:12.436Z,22.36
2023-05-04T10:52:54.150Z,21.59
2023-05-04T10:55:26.675Z,22.28
2023-05-04T10:57:59.431Z,20.89
2023-05-04T11:01:27.553Z,21.37
2023-05-04T11:04:11.976Z,21.41
2023-05-04T11:15:00.589Z,22.43
2023-05-04T11:17:33.397Z,22.96
2023-05-04T11:20:20.124Z,21.36
2023-05-04T11:22:59.509Z,19.59
2023-05-04T11:25:41.375Z,21.24
2023-05-04T11:28:16.703Z,20.33
2023-05-04T11:30:48.885Z,19.57
2023-05-04T11:33:23.996Z,19.64
2023-05-04T11:36:04.621Z,20.03
2023-05-04T11:39:14.108Z,19.80
2023-05-04T11:41:48.023Z,20.49
2023-05-04T11:44:26.471Z,20.31
2023-05-04T16:15:04.384Z,26.57
2023-05-04T16:18:27.964Z,26.53
2023-05-04T16:25:18.074Z,27.14
2023-05-04T16:28:31.523Z,28.21
2023-05-04T18:32:37.239Z,31.77
2023-05-04T19:23:02.416Z,38.37
2023-05-04T19:40:15.795Z,39.61
2023-05-04T19:55:09.763Z,39.95
2023-05-04T20:28:32.726Z,41.31
2023-05-04T21:07:45.423Z,44.19
2023-05-04T21:10:49.330Z,44.11
2023-05-04T21:14:03.054Z,44.94
2023-05-04T21:19:49.215Z,47.00
2023-05-04T21:59:05.016Z,58.47
2023-05-04T22:15:29.513Z,60.58
2023-05-04T22:22:09.402Z,61.81
2023-05-04T22:28:59.343Z,62.59
2023-05-04T22:31:53.709Z,61.91
2023-05-04T22:37:31.094Z,62.49
2023-05-04T22:40:55.176Z,62.61
2023-05-04T22:44:02.994Z,63.00
2023-05-04T22:55:24.015Z,64.21
2023-05-04T23:01:50.929Z,64.96
2023-05-04T23:19:13.090Z,65.64
2023-05-04T23:22:30.896Z,66.11
2023-05-04T23:40:10.780Z,67.44
2023-05-04T23:55:48.097Z,68.08
